createdAt,value
2018-04-16T00:00:18.173Z,93.98
2018-04-16T00:01:18.169Z,94.26
2018-04-16T00:02:18.139Z,94.26
2018-04-16T00:03:18.122Z,93.69
2018-04-16T00:04:18.107Z,94.07
2018-04-16T00:05:18.091Z,93.98
2018-04-16T00:06:18.075Z,94.17
2018-04-16T00:07:18.061Z,94.07
2018-04-16T00:08:18.047Z,94.46
2018-04-16T00:09:18.034Z,94.84
2018-04-16T00:10:18.016Z,94.84
2018-04-16T00:11:18.001Z,94.55
2018-04-16T00:12:17.997Z,94.84
2018-04-16T00:13:17.970Z,95.12
2018-04-16T00:14:17.954Z,94.93
2018-04-16T00:15:17.993Z,94.93
2018-04-16T00:16:17.931Z,95.22
2018-04-16T00:17:17.903Z,95.70
2018-04-16T00:18:17.891Z,95.61
2018-04-16T00:19:17.880Z,95.89
2018-04-16T00:20:17.870Z,95.70
2018-04-16T00:21:17.841Z,95.70
2018-04-16T00:22:17.835Z,96.27
2018-04-16T00:23:17.814Z,96.18
2018-04-16T00:24:17.802Z,96.27
2018-04-16T00:25:17.780Z,96.56
2018-04-16T00:26:17.767Z,96.47
2018-04-16T00:27:17.756Z,96.47
2018-04-16T00:28:17.738Z,96.94
2018-04-16T00:29:17.717Z,96.70
2018-04-16T00:30:17.702Z,96.80
2018-04-16T00:31:17.779Z,96.61
2018-04-16T00:32:17.679Z,96.89
2018-04-16T00:33:17.655Z,96.51
2018-04-16T00:34:17.646Z,97.37
2018-04-16T00:35:17.625Z,97.28
2018-04-16T00:36:17.610Z,97.56
2018-04-16T00:37:17.596Z,97.56
2018-04-16T00:38:17.578Z,97.37
2018-04-16T00:39:17.565Z,97.37
2018-04-16T00:40:17.548Z,97.18
2018-04-16T00:41:17.530Z,97.37
2018-04-16T00:42:17.516Z,97.56
2018-04-16T00:43:17.499Z,97.56
2018-04-16T00:44:17.486Z,97.94
2018-04-16T00:45:17.467Z,97.85
2018-04-16T00:46:17.454Z,98.04
2018-04-16T00:47:17.439Z,97.75
2018-04-16T00:48:17.429Z,98.52
2018-04-16T00:49:17.407Z,98.42
2018-04-16T00:50:17.390Z,98.52
2018-04-16T00:51:17.374Z,98.90
2018-04-16T00:52:17.375Z,98.42
2018-04-16T00:53:17.344Z,98.80
2018-04-16T00:54:17.336Z,98.99
2018-04-16T00:55:17.329Z,99.19
2018-04-16T00:56:17.304Z,98.71
2018-04-16T00:57:17.277Z,99.19
2018-04-16T00:58:17.263Z,99.09
2018-04-16T00:59:17.250Z,98.99
2018-04-16T01:00:17.233Z,98.80
2018-04-16T01:01:17.223Z,99.09
2018-04-16T01:02:17.203Z,99.09
2018-04-16T01:03:17.188Z,99.48
2018-04-16T01:04:17.174Z,99.48
2018-04-16T01:05:17.155Z,99.48
2018-04-16T01:06:17.139Z,99.76
2018-04-16T01:07:17.140Z,99.99
2018-04-16T01:08:17.111Z,99.76
2018-04-16T01:09:17.093Z,99.99
2018-04-16T01:10:17.074Z,99.71
2018-04-16T01:11:17.082Z,99.99
2018-04-16T01:12:17.040Z,99.19
2018-04-16T01:13:17.026Z,98.23
2018-04-16T01:14:17.018Z,98.33
2018-04-16T01:15:16.993Z,98.13
2018-04-16T01:16:16.983Z,97.56
2018-04-16T01:17:16.963Z,97.66
2018-04-16T01:18:16.951Z,97.28
2018-04-16T01:19:16.934Z,97.28
2018-04-16T01:20:16.914Z,97.56
2018-04-16T01:21:16.915Z,97.47
2018-04-16T01:22:16.887Z,97.18
2018-04-16T01:23:16.870Z,97.08
2018-04-16T01:24:16.853Z,97.85
2018-04-16T01:25:16.836Z,97.94
2018-04-16T01:26:16.821Z,97.85
2018-04-16T01:27:16.816Z,97.52
2018-04-16T01:28:16.793Z,97.94
2018-04-16T01:29:16.779Z,97.56
2018-04-16T01:30:16.760Z,98.13
2018-04-16T01:31:16.739Z,97.94
2018-04-16T01:32:16.730Z,97.66
2018-04-16T01:33:16.711Z,98.04
2018-04-16T01:34:16.692Z,97.56
2018-04-16T01:35:16.681Z,97.56
2018-04-16T01:36:16.662Z,97.56
2018-04-16T01:37:16.649Z,97.37
2018-04-16T01:38:16.632Z,97.28
2018-04-16T01:39:16.615Z,97.23
2018-04-16T01:40:16.609Z,97.32
2018-04-16T01:41:16.585Z,97.32
2018-04-16T01:42:16.565Z,97.52
2018-04-16T01:43:16.554Z,97.52
2018-04-16T01:44:16.535Z,96.51
2018-04-16T01:45:16.520Z,96.70
2018-04-16T01:46:16.501Z,96.89
2018-04-16T01:47:16.488Z,96.70
2018-04-16T01:48:16.472Z,96.32
2018-04-16T01:49:16.455Z,96.61
2018-04-16T01:50:16.439Z,95.94
2018-04-16T01:51:16.519Z,95.56
2018-04-16T01:52:16.409Z,95.65
2018-04-16T01:53:16.391Z,95.56
2018-04-16T01:54:16.375Z,96.13
2018-04-16T01:55:16.368Z,96.03
2018-04-16T01:56:16.344Z,96.22
2018-04-16T01:57:16.329Z,96.22
2018-04-16T01:58:16.310Z,96.13
2018-04-16T01:59:16.292Z,96.51
2018-04-16T02:00:16.278Z,96.61
2018-04-16T02:01:16.261Z,96.13
2018-04-16T02:02:16.248Z,96.42
2018-04-16T02:03:16.229Z,96.42
2018-04-16T02:04:16.225Z,95.84
2018-04-16T02:05:16.200Z,95.51
2018-04-16T02:06:16.180Z,95.94
2018-04-16T02:07:16.168Z,96.17
2018-04-16T02:08:16.149Z,95.98
2018-04-16T02:09:16.131Z,96.32
2018-04-16T02:10:16.234Z,95.65
2018-04-16T02:11:16.103Z,95.36
2018-04-16T02:12:16.086Z,95.27
2018-04-16T02:13:16.068Z,95.65
2018-04-16T02:14:16.051Z,95.17
2018-04-16T02:15:16.041Z,95.75
2018-04-16T02:16:16.016Z,95.70
2018-04-16T02:17:16.004Z,95.79
2018-04-16T02:18:15.984Z,96.51
2018-04-16T02:19:15.970Z,96.51
2018-04-16T02:20:15.952Z,96.32
2018-04-16T02:21:15.940Z,96.27
2018-04-16T02:22:15.922Z,96.17
2018-04-16T02:23:15.904Z,96.37
2018-04-16T02:24:15.887Z,96.56
2018-04-16T02:25:15.873Z,95.79
2018-04-16T02:26:15.855Z,95.89
2018-04-16T02:27:15.838Z,95.89
2018-04-16T02:28:15.833Z,95.61
2018-04-16T02:29:15.924Z,95.98
2018-04-16T02:30:15.793Z,95.41
2018-04-16T02:31:15.778Z,96.08
2018-04-16T02:32:15.762Z,96.27
2018-04-16T02:33:15.741Z,96.66
2018-04-16T02:34:15.725Z,96.27
2018-04-16T02:35:15.714Z,96.66
2018-04-16T02:36:15.696Z,96.66
2018-04-16T02:37:15.695Z,97.13
2018-04-16T02:38:15.661Z,97.03
2018-04-16T02:39:15.655Z,97.32
2018-04-16T02:40:15.632Z,97.23
2018-04-16T02:41:15.612Z,97.61
2018-04-16T02:42:15.595Z,97.89
2018-04-16T02:43:15.591Z,96.84
2018-04-16T02:44:15.563Z,96.66
2018-04-16T02:45:15.546Z,96.27
2018-04-16T02:46:15.531Z,96.66
2018-04-16T02:47:15.513Z,96.75
2018-04-16T02:48:15.501Z,96.66
2018-04-16T02:49:15.482Z,96.84
2018-04-16T02:50:15.462Z,96.84
2018-04-16T02:51:15.449Z,96.66
2018-04-16T02:52:15.433Z,96.94
2018-04-16T02:53:15.416Z,97.32
2018-04-16T02:54:15.400Z,97.03
2018-04-16T02:55:15.422Z,97.13
2018-04-16T02:56:15.444Z,97.23
2018-04-16T02:57:15.351Z,97.52
2018-04-16T02:58:15.333Z,97.61
2018-04-16T02:59:15.355Z,97.23
2018-04-16T03:00:15.300Z,97.61
2018-04-16T03:01:15.285Z,97.32
2018-04-16T03:02:15.271Z,97.23
2018-04-16T03:03:15.250Z,97.42
2018-04-16T03:04:15.237Z,97.32
2018-04-16T03:05:15.240Z,96.66
2018-04-16T03:06:15.212Z,96.46
2018-04-16T03:07:15.193Z,97.23
2018-04-16T03:08:15.169Z,97.13
2018-04-16T03:09:15.155Z,97.27
2018-04-16T03:10:15.137Z,97.52
2018-04-16T03:11:15.121Z,97.89
2018-04-16T03:12:15.104Z,97.32
2018-04-16T03:13:15.089Z,97.94
2018-04-16T03:14:15.074Z,98.03
2018-04-16T03:15:15.064Z,97.85
2018-04-16T03:16:15.039Z,97.94
2018-04-16T03:17:15.021Z,97.85
2018-04-16T03:18:15.009Z,97.13
2018-04-16T03:19:14.992Z,97.52
2018-04-16T03:20:14.973Z,97.23
2018-04-16T03:21:14.960Z,97.27
2018-04-16T03:22:14.941Z,97.03
2018-04-16T03:23:14.929Z,97.23
2018-04-16T03:24:14.909Z,97.32
2018-04-16T03:25:14.890Z,97.52
2018-04-16T03:26:14.878Z,97.32
2018-04-16T03:27:14.859Z,97.42
2018-04-16T03:28:14.840Z,97.37
2018-04-16T03:29:14.828Z,96.89
2018-04-16T03:30:14.808Z,97.47
2018-04-16T03:31:14.795Z,97.66
2018-04-16T03:32:14.781Z,98.03
2018-04-16T03:33:14.771Z,97.85
2018-04-16T03:34:14.742Z,97.66
2018-04-16T03:35:14.728Z,97.85
2018-04-16T03:36:14.710Z,97.66
2018-04-16T03:37:14.690Z,97.66
2018-04-16T03:38:14.677Z,97.94
2018-04-16T03:39:14.660Z,98.13
2018-04-16T03:40:14.642Z,98.71
2018-04-16T03:41:14.626Z,98.23
2018-04-16T03:42:14.624Z,99.18
2018-04-16T03:43:14.597Z,99.08
2018-04-16T03:44:14.587Z,98.99
2018-04-16T03:45:14.613Z,98.99
2018-04-16T03:46:14.542Z,99.18
2018-04-16T03:47:14.527Z,99.18
2018-04-16T03:48:14.509Z,99.47
2018-04-16T03:49:14.493Z,99.99
2018-04-16T03:50:14.476Z,99.85
2018-04-16T03:51:14.461Z,99.99
2018-04-16T03:52:14.441Z,99.71
2018-04-16T03:53:14.426Z,99.99
2018-04-16T03:54:14.408Z,99.99
2018-04-16T03:55:14.434Z,99.99
2018-04-16T03:56:14.375Z,99.99
2018-04-16T03:57:14.356Z,99.99
2018-04-16T03:58:14.339Z,99.99
2018-04-16T03:59:14.325Z,99.99
2018-04-16T04:00:14.307Z,99.99
2018-04-16T04:01:14.444Z,99.99
2018-04-16T04:02:14.283Z,99.99
2018-04-16T04:03:14.256Z,99.99
2018-04-16T04:04:14.295Z,99.99
2018-04-16T04:05:14.224Z,99.99
2018-04-16T04:06:14.206Z,99.99
2018-04-16T04:07:14.188Z,99.99
2018-04-16T04:08:14.181Z,99.99
2018-04-16T04:09:14.243Z,99.99
2018-04-16T04:10:14.146Z,99.99
2018-04-16T04:11:14.123Z,99.99
2018-04-16T04:12:14.105Z,99.99
2018-04-16T04:13:14.089Z,99.99
2018-04-16T04:14:14.081Z,99.99
2018-04-16T04:15:14.053Z,99.99
2018-04-16T04:16:14.038Z,99.99
2018-04-16T04:17:14.022Z,99.99
2018-04-16T04:18:14.005Z,99.99
2018-04-16T04:19:13.985Z,99.99
2018-04-16T04:20:13.973Z,99.99
2018-04-16T04:21:13.952Z,99.99
2018-04-16T04:22:13.935Z,99.99
2018-04-16T04:23:13.923Z,99.99
2018-04-16T04:24:13.902Z,99.99
2018-04-16T04:25:13.909Z,99.99
2018-04-16T04:26:13.866Z,99.99
2018-04-16T04:27:13.851Z,99.99
2018-04-16T04:28:13.904Z,99.99
2018-04-16T04:29:13.815Z,99.99
2018-04-16T04:30:13.801Z,99.99
2018-04-16T04:31:13.783Z,99.99
2018-04-16T04:32:13.769Z,99.99
2018-04-16T04:33:13.752Z,99.99
2018-04-16T04:34:13.732Z,99.99
2018-04-16T04:35:13.716Z,99.99
2018-04-16T04:36:13.703Z,99.99
2018-04-16T04:37:13.682Z,99.99
2018-04-16T04:38:13.661Z,99.99
2018-04-16T04:39:13.645Z,99.99
2018-04-16T04:40:13.635Z,99.99
2018-04-16T04:41:13.626Z,99.61
2018-04-16T04:42:13.598Z,99.71
2018-04-16T04:43:13.584Z,99.61
2018-04-16T04:44:13.577Z,99.99
2018-04-16T04:45:13.550Z,99.99
2018-04-16T04:46:13.525Z,99.52
2018-04-16T04:47:13.510Z,99.90
2018-04-16T04:48:13.491Z,99.61
2018-04-16T04:49:13.482Z,99.57
2018-04-16T04:50:13.460Z,99.61
2018-04-16T04:51:13.451Z,99.66
2018-04-16T04:52:13.424Z,99.28
2018-04-16T04:53:13.405Z,98.99
2018-04-16T04:54:13.390Z,99.47
2018-04-16T04:55:13.371Z,99.66
2018-04-16T04:56:13.358Z,99.28
2018-04-16T04:57:13.339Z,99.28
2018-04-16T04:58:13.320Z,99.42
2018-04-16T04:59:13.307Z,99.23
2018-04-16T05:00:13.450Z,99.47
2018-04-16T05:01:13.277Z,99.08
2018-04-16T05:02:13.253Z,98.90
2018-04-16T05:03:13.258Z,99.71
2018-04-16T05:04:13.217Z,99.57
2018-04-16T05:05:13.201Z,99.18
2018-04-16T05:06:13.186Z,99.28
2018-04-16T05:07:13.166Z,99.32
2018-04-16T05:08:13.150Z,99.18
2018-04-16T05:09:13.129Z,99.85
2018-04-16T05:10:13.117Z,99.80
2018-04-16T05:11:13.096Z,99.52
2018-04-16T05:12:13.081Z,99.90
2018-04-16T05:13:13.064Z,99.61
2018-04-16T05:14:13.056Z,99.80
2018-04-16T05:15:13.031Z,99.99
2018-04-16T05:16:13.118Z,99.99
2018-04-16T05:17:13.001Z,99.90
2018-04-16T05:18:12.986Z,99.47
2018-04-16T05:19:12.966Z,99.18
2018-04-16T05:20:12.945Z,98.75
2018-04-16T05:21:12.927Z,99.08
2018-04-16T05:22:12.910Z,99.18
2018-04-16T05:23:12.898Z,99.04
2018-04-16T05:24:12.974Z,99.04
2018-04-16T05:25:12.857Z,99.08
2018-04-16T05:26:12.839Z,98.94
2018-04-16T05:27:12.827Z,99.08
2018-04-16T05:28:12.806Z,98.71
2018-04-16T05:29:12.788Z,99.28
2018-04-16T05:30:12.775Z,98.61
2018-04-16T05:31:12.757Z,98.61
2018-04-16T05:32:12.738Z,98.52
2018-04-16T05:33:12.723Z,98.99
2018-04-16T05:34:12.703Z,98.61
2018-04-16T05:35:12.688Z,98.71
2018-04-16T05:36:12.677Z,98.90
2018-04-16T05:37:12.653Z,98.32
2018-04-16T05:38:12.637Z,98.61
2018-04-16T05:39:12.625Z,98.61
2018-04-16T05:40:12.627Z,98.52
2018-04-16T05:41:12.605Z,97.85
2018-04-16T05:42:12.576Z,97.85
2018-04-16T05:43:12.708Z,97.94
2018-04-16T05:44:12.537Z,97.08
2018-04-16T05:45:12.523Z,96.56
2018-04-16T05:46:12.504Z,95.98
2018-04-16T05:47:12.485Z,94.27
2018-04-16T05:48:12.481Z,92.88
2018-04-16T05:49:12.462Z,92.54
2018-04-16T05:50:12.438Z,90.44
2018-04-16T05:51:12.423Z,89.15
2018-04-16T05:52:12.404Z,87.18
2018-04-16T05:53:12.389Z,85.75
2018-04-16T05:54:12.372Z,84.06
2018-04-16T05:55:12.360Z,83.44
2018-04-16T05:56:12.341Z,82.29
2018-04-16T05:57:12.325Z,81.71
2018-04-16T05:58:12.312Z,82.19
2018-04-16T05:59:12.305Z,81.71
2018-04-16T06:00:12.286Z,81.29
2018-04-16T06:01:12.289Z,81.43
2018-04-16T06:02:12.323Z,81.23
2018-04-16T06:03:12.243Z,79.89
2018-04-16T06:04:12.230Z,79.64
2018-04-16T06:05:12.222Z,78.30
2018-04-16T06:06:12.202Z,77.67
2018-04-16T06:07:12.192Z,77.19
2018-04-16T06:08:12.179Z,76.81
2018-04-16T06:09:12.170Z,76.23
2018-04-16T06:10:12.157Z,76.42
2018-04-16T06:11:12.142Z,75.50
2018-04-16T06:12:12.135Z,75.70
2018-04-16T06:13:12.121Z,75.31
2018-04-16T06:14:12.109Z,75.12
2018-04-16T06:15:12.099Z,75.12
2018-04-16T06:16:12.093Z,74.35
2018-04-16T06:17:12.083Z,74.19
2018-04-16T06:18:12.070Z,73.24
2018-04-16T06:19:12.075Z,72.41
2018-04-16T06:20:12.050Z,71.73
2018-04-16T06:21:12.041Z,71.16
2018-04-16T06:22:12.029Z,70.97
2018-04-16T06:23:12.098Z,70.39
2018-04-16T06:24:12.008Z,70.72
2018-04-16T06:25:11.999Z,70.62
2018-04-16T06:26:12.000Z,69.66
2018-04-16T06:27:12.049Z,70.14
2018-04-16T06:28:11.973Z,69.98
2018-04-16T06:29:11.962Z,69.69
2018-04-16T06:30:11.955Z,69.56
2018-04-16T06:31:11.948Z,69.75
2018-04-16T06:32:11.950Z,71.55
2018-04-16T06:33:11.930Z,73.77
2018-04-16T06:34:11.927Z,75.02
2018-04-16T06:35:11.917Z,75.65
2018-04-16T06:36:11.907Z,77.00
2018-04-16T06:37:11.896Z,77.92
2018-04-16T06:38:11.901Z,78.40
2018-04-16T06:39:11.891Z,77.33
2018-04-16T06:40:11.875Z,75.35
2018-04-16T06:41:11.865Z,74.77
2018-04-16T06:42:11.858Z,75.70
2018-04-16T06:43:11.856Z,76.71
2018-04-16T06:44:11.839Z,77.38
2018-04-16T06:45:11.843Z,78.02
2018-04-16T06:46:11.825Z,77.53
2018-04-16T06:47:11.813Z,77.48
2018-04-16T06:48:11.814Z,78.49
2018-04-16T06:49:11.794Z,78.11
2018-04-16T06:50:11.787Z,78.40
2018-04-16T06:51:11.773Z,79.45
2018-04-16T06:52:11.777Z,79.45
2018-04-16T06:53:11.815Z,79.64
2018-04-16T06:54:11.756Z,79.45
2018-04-16T06:55:11.887Z,79.01
2018-04-16T06:56:11.731Z,78.34
2018-04-16T06:57:11.716Z,78.15
2018-04-16T06:58:11.710Z,78.63
2018-04-16T06:59:11.697Z,78.63
2018-04-16T07:00:11.697Z,78.63
2018-04-16T07:01:11.678Z,78.05
2018-04-16T07:02:11.676Z,78.15
2018-04-16T07:03:11.726Z,77.80
2018-04-16T07:04:11.680Z,77.71
2018-04-16T07:05:11.642Z,77.51
2018-04-16T07:06:11.624Z,77.04
2018-04-16T07:07:11.649Z,76.69
2018-04-16T07:08:11.606Z,76.02
2018-04-16T07:09:11.596Z,75.25
2018-04-16T07:10:11.640Z,74.62
2018-04-16T07:11:11.584Z,74.33
2018-04-16T07:12:11.567Z,72.60
2018-04-16T07:13:11.553Z,73.52
2018-04-16T07:14:11.545Z,73.81
2018-04-16T07:15:11.535Z,74.48
2018-04-16T07:16:11.662Z,74.48
2018-04-16T07:17:11.515Z,74.19
2018-04-16T07:18:11.510Z,74.29
2018-04-16T07:19:11.526Z,74.10
2018-04-16T07:20:11.499Z,74.54
2018-04-16T07:21:11.477Z,74.93
2018-04-16T07:22:11.473Z,75.79
2018-04-16T07:23:11.455Z,76.32
2018-04-16T07:24:11.451Z,76.65
2018-04-16T07:25:11.434Z,77.09
2018-04-16T07:26:11.422Z,77.86
2018-04-16T07:27:11.418Z,77.76
2018-04-16T07:28:11.403Z,78.15
2018-04-16T07:29:11.390Z,77.95
2018-04-16T07:30:11.381Z,78.34
2018-04-16T07:31:11.372Z,79.01
2018-04-16T07:32:11.428Z,79.01
2018-04-16T07:33:11.350Z,79.01
2018-04-16T07:34:11.338Z,78.44
2018-04-16T07:35:11.330Z,78.25
2018-04-16T07:36:11.322Z,78.34
2018-04-16T07:37:11.313Z,78.05
2018-04-16T07:38:11.299Z,77.86
2018-04-16T07:39:11.286Z,79.45
2018-04-16T07:40:11.274Z,78.82
2018-04-16T07:41:11.261Z,77.90
2018-04-16T07:42:11.252Z,75.48
2018-04-16T07:43:11.241Z,72.64
2018-04-16T07:44:11.248Z,71.39
2018-04-16T07:45:11.228Z,71.10
2018-04-16T07:46:11.207Z,71.23
2018-04-16T07:47:11.206Z,70.17
2018-04-16T07:48:11.212Z,69.21
2018-04-16T07:49:11.176Z,69.40
2018-04-16T07:50:11.178Z,69.50
2018-04-16T07:51:11.161Z,69.50
2018-04-16T07:52:11.151Z,70.23
2018-04-16T07:53:11.138Z,71.06
2018-04-16T07:54:11.137Z,72.56
2018-04-16T07:55:11.119Z,73.14
2018-04-16T07:56:11.111Z,72.99
2018-04-16T07:57:11.128Z,72.31
2018-04-16T07:58:11.094Z,71.83
2018-04-16T07:59:11.090Z,72.18
2018-04-16T08:00:11.092Z,73.72
2018-04-16T08:01:11.066Z,73.27
2018-04-16T08:02:11.056Z,72.69
2018-04-16T08:03:11.047Z,71.19
2018-04-16T08:04:11.036Z,70.81
2018-04-16T08:05:11.021Z,69.98
2018-04-16T08:06:11.120Z,70.04
2018-04-16T08:07:11.013Z,70.90
2018-04-16T08:08:10.995Z,70.62
2018-04-16T08:09:11.025Z,70.43
2018-04-16T08:10:10.985Z,70.81
2018-04-16T08:11:10.978Z,68.96
2018-04-16T08:12:10.962Z,68.29
2018-04-16T08:13:10.954Z,67.55
2018-04-16T08:14:10.949Z,66.04
2018-04-16T08:15:10.939Z,65.08
2018-04-16T08:16:10.938Z,64.47
2018-04-16T08:17:10.924Z,66.10
2018-04-16T08:18:10.918Z,66.30
2018-04-16T08:19:10.905Z,66.10
2018-04-16T08:20:10.903Z,66.20
2018-04-16T08:21:10.893Z,65.53
2018-04-16T08:22:10.892Z,65.63
2018-04-16T08:23:10.877Z,66.07
2018-04-16T08:24:10.879Z,66.17
2018-04-16T08:25:10.867Z,66.17
2018-04-16T08:26:10.857Z,67.22
2018-04-16T08:27:10.852Z,67.10
2018-04-16T08:28:10.845Z,67.80
2018-04-16T08:29:10.832Z,66.65
2018-04-16T08:30:10.827Z,66.10
2018-04-16T08:31:10.822Z,65.37
2018-04-16T08:32:10.815Z,64.05
2018-04-16T08:33:10.809Z,64.08
2018-04-16T08:34:10.802Z,64.95
2018-04-16T08:35:10.797Z,65.33
2018-04-16T08:36:10.793Z,65.72
2018-04-16T08:37:10.785Z,65.91
2018-04-16T08:38:10.828Z,65.91
2018-04-16T08:39:10.770Z,66.65
2018-04-16T08:40:10.771Z,67.42
2018-04-16T08:41:10.775Z,67.51
2018-04-16T08:42:10.763Z,66.65
2018-04-16T08:43:10.745Z,65.81
2018-04-16T08:44:10.741Z,66.10
2018-04-16T08:45:10.751Z,65.08
2018-04-16T08:46:10.731Z,64.56
2018-04-16T08:47:10.720Z,66.17
2018-04-16T08:48:10.716Z,66.27
2018-04-16T08:49:10.713Z,66.94
2018-04-16T08:50:10.702Z,66.94
2018-04-16T08:51:10.818Z,65.50
2018-04-16T08:52:10.697Z,64.66
2018-04-16T08:53:10.684Z,64.76
2018-04-16T08:54:10.680Z,64.47
2018-04-16T08:55:10.672Z,63.60
2018-04-16T08:56:10.685Z,63.09
2018-04-16T08:57:10.660Z,61.93
2018-04-16T08:58:10.655Z,61.58
2018-04-16T08:59:10.702Z,60.30
2018-04-16T09:00:10.651Z,60.32
2018-04-16T09:01:10.651Z,60.30
2018-04-16T09:02:10.631Z,61.71
2018-04-16T09:03:10.644Z,61.16
2018-04-16T09:04:10.623Z,61.45
2018-04-16T09:05:10.618Z,61.71
2018-04-16T09:06:10.618Z,61.71
2018-04-16T09:07:10.604Z,62.26
2018-04-16T09:08:10.608Z,62.67
2018-04-16T09:09:10.602Z,63.51
2018-04-16T09:10:10.603Z,63.57
2018-04-16T09:11:10.629Z,64.89
2018-04-16T09:12:10.579Z,65.11
2018-04-16T09:13:10.574Z,64.18
2018-04-16T09:14:10.563Z,63.60
2018-04-16T09:15:10.563Z,63.31
2018-04-16T09:16:10.552Z,62.67
2018-04-16T09:17:10.547Z,61.45
2018-04-16T09:18:10.542Z,59.91
2018-04-16T09:19:10.538Z,61.52
2018-04-16T09:20:10.528Z,61.90
2018-04-16T09:21:10.530Z,61.65
2018-04-16T09:22:10.517Z,60.87
2018-04-16T09:23:10.522Z,60.58
2018-04-16T09:24:10.508Z,59.30
2018-04-16T09:25:10.514Z,58.95
2018-04-16T09:26:10.497Z,58.01
2018-04-16T09:27:10.489Z,56.76
2018-04-16T09:28:10.487Z,56.37
2018-04-16T09:29:10.495Z,56.25
2018-04-16T09:30:10.481Z,57.21
2018-04-16T09:31:10.477Z,58.24
2018-04-16T09:32:10.500Z,58.47
2018-04-16T09:33:10.458Z,58.92
2018-04-16T09:34:10.457Z,58.75
2018-04-16T09:35:10.456Z,58.08
2018-04-16T09:36:10.467Z,58.75
2018-04-16T09:37:10.446Z,59.43
2018-04-16T09:38:10.468Z,58.27
2018-04-16T09:39:10.428Z,57.53
2018-04-16T09:40:10.426Z,58.37
2018-04-16T09:41:10.417Z,59.40
2018-04-16T09:42:10.414Z,59.30
2018-04-16T09:43:10.416Z,58.53
2018-04-16T09:44:10.401Z,58.72
2018-04-16T09:45:10.554Z,59.01
2018-04-16T09:46:10.399Z,59.88
2018-04-16T09:47:10.387Z,59.97
2018-04-16T09:48:10.380Z,60.17
2018-04-16T09:49:10.375Z,60.36
2018-04-16T09:50:10.366Z,57.12
2018-04-16T09:51:10.365Z,57.34
2018-04-16T09:52:10.357Z,56.57
2018-04-16T09:53:10.350Z,55.89
2018-04-16T09:54:10.352Z,56.27
2018-04-16T09:55:10.340Z,55.24
2018-04-16T09:56:10.337Z,54.79
2018-04-16T09:57:10.333Z,54.60
2018-04-16T09:58:10.514Z,54.60
2018-04-16T09:59:10.324Z,54.11
2018-04-16T10:00:10.319Z,54.57
2018-04-16T10:01:10.375Z,55.54
2018-04-16T10:02:10.314Z,56.57
2018-04-16T10:03:10.310Z,56.76
2018-04-16T10:04:10.311Z,56.18
2018-04-16T10:05:10.317Z,56.37
2018-04-16T10:06:10.298Z,58.30
2018-04-16T10:07:10.293Z,57.34
2018-04-16T10:08:10.293Z,57.43
2018-04-16T10:09:10.286Z,57.62
2018-04-16T10:10:10.304Z,58.08
2018-04-16T10:11:10.278Z,57.92
2018-04-16T10:12:10.282Z,54.88
2018-04-16T10:13:10.278Z,54.82
2018-04-16T10:14:10.265Z,53.85
2018-04-16T10:15:10.274Z,55.08
2018-04-16T10:16:10.263Z,55.34
2018-04-16T10:17:10.256Z,55.70
2018-04-16T10:18:10.253Z,56.09
2018-04-16T10:19:10.316Z,56.66
2018-04-16T10:20:10.244Z,56.54
2018-04-16T10:21:10.242Z,57.40
2018-04-16T10:22:10.237Z,57.86
2018-04-16T10:23:10.240Z,58.05
2018-04-16T10:24:10.226Z,57.24
2018-04-16T10:25:10.221Z,55.44
2018-04-16T10:26:10.227Z,54.40
2018-04-16T10:27:10.214Z,54.38
2018-04-16T10:28:10.210Z,55.31
2018-04-16T10:29:10.230Z,55.15
2018-04-16T10:30:10.206Z,55.31
2018-04-16T10:31:10.196Z,55.77
2018-04-16T10:32:10.292Z,54.76
2018-04-16T10:33:10.191Z,53.13
2018-04-16T10:34:10.211Z,51.34
2018-04-16T10:35:10.186Z,50.47
2018-04-16T10:36:10.176Z,52.55
2018-04-16T10:37:10.207Z,53.77
2018-04-16T10:38:10.176Z,53.99
2018-04-16T10:39:10.163Z,54.02
2018-04-16T10:40:10.160Z,52.50
2018-04-16T10:41:10.165Z,50.69
2018-04-16T10:42:10.159Z,49.65
2018-04-16T10:43:10.154Z,49.19
2018-04-16T10:44:10.142Z,48.32
2018-04-16T10:45:10.171Z,48.01
2018-04-16T10:46:10.164Z,49.53
2018-04-16T10:47:10.135Z,50.86
2018-04-16T10:48:10.142Z,52.35
2018-04-16T10:49:10.138Z,54.06
2018-04-16T10:50:10.138Z,54.52
2018-04-16T10:51:10.123Z,53.96
2018-04-16T10:52:10.126Z,52.28
2018-04-16T10:53:10.119Z,50.76
2018-04-16T10:54:10.132Z,49.24
2018-04-16T10:55:10.233Z,49.60
2018-04-16T10:56:10.118Z,50.28
2018-04-16T10:57:10.108Z,50.96
2018-04-16T10:58:10.202Z,51.05
2018-04-16T10:59:10.099Z,50.50
2018-04-16T11:00:10.099Z,50.09
2018-04-16T11:01:10.099Z,50.67
2018-04-16T11:02:10.094Z,50.21
2018-04-16T11:03:10.095Z,50.31
2018-04-16T11:04:10.107Z,50.57
2018-04-16T11:05:10.092Z,51.15
2018-04-16T11:06:10.085Z,48.97
2018-04-16T11:07:10.090Z,48.86
2018-04-16T11:08:10.079Z,49.17
2018-04-16T11:09:10.077Z,47.84
2018-04-16T11:10:10.076Z,47.07
2018-04-16T11:11:10.077Z,46.97
2018-04-16T11:12:10.073Z,47.24
2018-04-16T11:13:10.118Z,48.76
2018-04-16T11:14:10.068Z,49.32
2018-04-16T11:15:10.079Z,49.99
2018-04-16T11:16:10.086Z,49.44
2018-04-16T11:17:10.064Z,49.80
2018-04-16T11:18:10.066Z,50.35
2018-04-16T11:19:10.086Z,49.60
2018-04-16T11:20:10.060Z,48.61
2018-04-16T11:21:10.062Z,50.32
2018-04-16T11:22:10.058Z,50.90
2018-04-16T11:23:10.065Z,51.07
2018-04-16T11:24:10.057Z,51.75
2018-04-16T11:25:10.055Z,51.65
2018-04-16T11:26:10.207Z,52.40
2018-04-16T11:27:10.059Z,53.45
2018-04-16T11:28:10.039Z,53.74
2018-04-16T11:29:10.053Z,52.33
2018-04-16T11:30:10.066Z,52.61
2018-04-16T11:31:10.035Z,51.97
2018-04-16T11:32:10.038Z,51.46
2018-04-16T11:33:10.028Z,52.59
2018-04-16T11:34:10.014Z,53.55
2018-04-16T11:35:10.035Z,54.39
2018-04-16T11:36:10.006Z,54.56
2018-04-16T11:37:10.002Z,54.65
2018-04-16T11:38:09.997Z,55.13
2018-04-16T11:39:09.993Z,55.23
2018-04-16T11:40:09.986Z,54.22
2018-04-16T11:41:09.986Z,51.87
2018-04-16T11:42:10.028Z,50.18
2018-04-16T11:43:09.972Z,49.63
2018-04-16T11:44:09.974Z,47.91
2018-04-16T11:45:09.963Z,47.53
2018-04-16T11:46:09.958Z,47.33
2018-04-16T11:47:09.953Z,47.63
2018-04-16T11:48:09.949Z,48.35
2018-04-16T11:49:09.950Z,49.51
2018-04-16T11:50:09.943Z,50.06
2018-04-16T11:51:09.950Z,51.39
2018-04-16T11:52:09.933Z,51.84
2018-04-16T11:53:09.936Z,52.52
2018-04-16T11:54:09.933Z,52.25
2018-04-16T11:55:10.052Z,51.84
2018-04-16T11:56:09.914Z,53.09
2018-04-16T11:57:09.910Z,52.69
2018-04-16T11:58:09.913Z,54.13
2018-04-16T11:59:09.898Z,53.48
2018-04-16T12:00:09.892Z,52.55
2018-04-16T12:01:09.884Z,51.84
2018-04-16T12:02:09.899Z,52.61
2018-04-16T12:03:09.902Z,52.45
2018-04-16T12:04:09.878Z,51.41
2018-04-16T12:05:09.870Z,50.74
2018-04-16T12:06:09.855Z,51.12
2018-04-16T12:07:09.850Z,51.87
2018-04-16T12:08:09.851Z,51.97
2018-04-16T12:09:09.835Z,52.55
2018-04-16T12:10:09.838Z,53.39
2018-04-16T12:11:09.825Z,53.77
2018-04-16T12:12:09.818Z,53.77
2018-04-16T12:13:09.832Z,54.25
2018-04-16T12:14:09.802Z,53.96
2018-04-16T12:15:09.792Z,53.96
2018-04-16T12:16:09.841Z,53.87
2018-04-16T12:17:09.779Z,53.77
2018-04-16T12:18:09.780Z,53.77
2018-04-16T12:19:09.765Z,53.77
2018-04-16T12:20:09.760Z,52.81
2018-04-16T12:21:09.751Z,54.16
2018-04-16T12:22:09.740Z,54.22
2018-04-16T12:23:09.735Z,54.42
2018-04-16T12:24:09.728Z,54.44
2018-04-16T12:25:09.719Z,54.35
2018-04-16T12:26:09.722Z,53.94
2018-04-16T12:27:09.700Z,54.44
2018-04-16T12:28:09.693Z,54.13
2018-04-16T12:29:09.744Z,54.16
2018-04-16T12:30:09.678Z,54.35
2018-04-16T12:31:09.673Z,54.16
2018-04-16T12:32:09.662Z,54.06
2018-04-16T12:33:09.679Z,54.35
2018-04-16T12:34:09.684Z,54.06
2018-04-16T12:35:09.639Z,54.16
2018-04-16T12:36:09.638Z,53.96
2018-04-16T12:37:09.627Z,53.03
2018-04-16T12:38:09.613Z,52.64
2018-04-16T12:39:09.626Z,51.89
2018-04-16T12:40:09.595Z,51.61
2018-04-16T12:41:09.590Z,51.29
2018-04-16T12:42:09.660Z,52.33
2018-04-16T12:43:09.578Z,53.67
2018-04-16T12:44:09.568Z,54.25
2018-04-16T12:45:09.564Z,53.48
2018-04-16T12:46:09.557Z,52.71
2018-04-16T12:47:09.541Z,52.73
2018-04-16T12:48:09.543Z,52.64
2018-04-16T12:49:09.535Z,52.09
2018-04-16T12:50:09.520Z,51.80
2018-04-16T12:51:09.516Z,51.22
2018-04-16T12:52:09.508Z,50.74